createdAt,value
2022-10-13T00:01:24.429Z,101641.16
2022-10-13T00:03:52.909Z,101612.63
2022-10-13T00:06:23.843Z,101641.91
2022-10-13T00:08:52.665Z,101638.91
2022-10-13T00:11:22.712Z,101644.84
2022-10-13T00:13:53.087Z,101650.09
2022-10-13T00:16:23.121Z,101643.03
2022-10-13T00:18:52.298Z,101641.59
2022-10-13T00:21:24.723Z,101574.91
2022-10-13T00:23:54.588Z,101645.13
2022-10-13T00:26:25.633Z,101643.69
2022-10-13T00:28:55.888Z,101647.22
2022-10-13T00:31:27.299Z,101656.97
2022-10-13T00:33:55.705Z,101655.56
2022-10-13T00:36:25.539Z,101660.22
2022-10-13T00:38:54.766Z,101636.44
2022-10-13T00:41:23.276Z,101666.84
2022-10-13T00:44:00.136Z,101673.31
2022-10-13T00:46:31.391Z,101667.38
2022-10-13T00:49:05.195Z,101677.13
2022-10-13T00:51:36.506Z,101648.41
2022-10-13T00:54:07.840Z,101676.00
2022-10-13T00:56:39.089Z,101671.75
2022-10-13T00:59:13.847Z,101641.31
2022-10-13T01:01:42.717Z,101662.84
2022-10-13T01:04:11.748Z,101661.28
2022-10-13T01:06:40.551Z,101654.63
2022-10-13T01:09:09.484Z,101659.53
2022-10-13T01:11:54.501Z,101603.13
2022-10-13T01:14:32.945Z,101646.41
2022-10-13T01:17:11.734Z,101635.69
2022-10-13T01:20:05.831Z,101640.72
2022-10-13T01:22:46.577Z,101640.88
2022-10-13T01:25:32.640Z,101645.53
2022-10-13T01:28:19.493Z,101643.38
2022-10-13T01:30:57.796Z,101633.91
2022-10-13T01:33:35.171Z,101608.13
2022-10-13T01:36:16.839Z,101634.72
2022-10-13T01:38:49.556Z,101633.25
2022-10-13T01:41:24.480Z,101639.63
2022-10-13T01:43:59.327Z,101637.06
2022-10-13T01:46:33.052Z,101640.72
2022-10-13T01:49:05.791Z,101628.56
2022-10-13T01:51:35.342Z,101624.19
2022-10-13T01:54:03.638Z,101619.94
2022-10-13T01:56:31.845Z,101625.56
2022-10-13T01:59:04.082Z,101624.31
2022-10-13T02:01:55.290Z,101621.38
2022-10-13T02:04:33.318Z,101605.50
2022-10-13T02:07:08.641Z,101612.16
2022-10-13T02:09:45.354Z,101619.22
2022-10-13T02:12:18.507Z,101618.50
2022-10-13T02:14:49.805Z,101617.06
2022-10-13T02:17:20.796Z,101609.03
2022-10-13T02:19:49.255Z,101604.66
2022-10-13T02:22:19.070Z,101611.97
2022-10-13T02:24:47.585Z,101605.19
2022-10-13T02:27:15.860Z,101601.66
2022-10-13T02:29:51.753Z,101593.34
2022-10-13T02:32:22.242Z,101598.84
2022-10-13T02:34:50.702Z,101602.66
2022-10-13T02:37:19.540Z,101592.47
2022-10-13T02:39:47.882Z,101597.84
2022-10-13T02:42:18.836Z,101608.41
2022-10-13T02:44:48.426Z,101601.50
2022-10-13T02:47:16.709Z,101596.53
2022-10-13T02:49:46.649Z,101595.41
2022-10-13T02:52:14.962Z,101596.41
2022-10-13T02:54:44.306Z,101583.84
2022-10-13T02:57:12.590Z,101590.44
2022-10-13T02:59:44.914Z,101593.78
2022-10-13T03:02:13.239Z,101587.84
2022-10-13T03:04:41.527Z,101592.09
2022-10-13T03:07:11.315Z,101589.53
2022-10-13T03:09:39.565Z,101586.97
2022-10-13T03:12:08.481Z,101547.22
2022-10-13T03:14:37.042Z,101584.72
2022-10-13T03:17:08.819Z,101585.97
2022-10-13T03:19:40.836Z,101588.91
2022-10-13T03:22:15.526Z,101583.81
2022-10-13T03:24:44.186Z,101592.81
2022-10-13T03:27:12.505Z,101603.53
2022-10-13T03:29:40.779Z,101605.63
2022-10-13T03:32:09.073Z,101608.81
2022-10-13T03:34:37.445Z,101607.22
2022-10-13T03:37:05.798Z,101606.25
2022-10-13T03:39:42.149Z,101609.91
2022-10-13T03:42:12.978Z,101604.44
2022-10-13T03:44:41.378Z,101611.22
2022-10-13T03:47:09.649Z,101614.03
2022-10-13T03:49:39.172Z,101616.09
2022-10-13T03:52:07.918Z,101615.13
2022-10-13T03:54:36.238Z,101611.72
2022-10-13T03:57:05.801Z,101605.22
2022-10-13T03:59:36.783Z,101601.94
2022-10-13T04:02:05.926Z,101611.81
2022-10-13T04:04:34.280Z,101448.16
2022-10-13T04:07:02.901Z,101617.16
2022-10-13T04:09:31.381Z,101608.16
2022-10-13T04:11:59.621Z,101612.06
2022-10-13T04:14:29.321Z,101617.41
2022-10-13T04:17:03.482Z,101614.13
2022-10-13T04:19:31.835Z,101600.28
2022-10-13T04:22:01.574Z,101619.97
2022-10-13T04:24:29.924Z,101620.22
2022-10-13T04:26:58.118Z,101615.84
2022-10-13T04:29:26.548Z,101612.91
2022-10-13T04:31:56.549Z,101612.91
2022-10-13T04:34:24.830Z,101611.72
2022-10-13T04:36:53.318Z,101609.41
2022-10-13T04:39:21.580Z,101612.09
2022-10-13T04:41:52.126Z,101619.28
2022-10-13T04:44:20.580Z,101613.91
2022-10-13T04:46:48.823Z,101490.03
2022-10-13T04:49:19.131Z,101616.41
2022-10-13T04:51:48.350Z,101618.94
2022-10-13T04:54:16.565Z,101624.44
2022-10-13T04:56:46.470Z,101626.97
2022-10-13T04:59:14.775Z,101626.25
2022-10-13T05:01:43.379Z,101625.53
2022-10-13T05:04:14.708Z,101630.75
2022-10-13T05:07:12.672Z,101619.94
2022-10-13T05:09:32.642Z,101586.03
2022-10-13T05:12:01.499Z,101622.72
2022-10-13T05:14:31.159Z,101625.28
2022-10-13T05:17:01.555Z,101613.00
2022-10-13T05:19:29.836Z,101603.53
2022-10-13T05:22:00.781Z,101606.19
2022-10-13T05:24:36.672Z,101603.53
2022-10-13T05:27:07.136Z,101615.19
2022-10-13T05:29:36.791Z,101611.56
2022-10-13T05:32:05.757Z,101612.53
2022-10-13T05:34:34.300Z,101626.88
2022-10-13T05:37:04.690Z,101630.28
2022-10-13T05:39:34.564Z,101620.81
2022-10-13T05:42:02.985Z,101625.06
2022-10-13T05:44:31.303Z,101623.81
2022-10-13T05:47:02.557Z,101625.41
2022-10-13T05:49:36.418Z,101590.91
2022-10-13T05:52:10.151Z,101637.22
2022-10-13T05:54:43.098Z,101636.59
2022-10-13T05:57:17.406Z,101627.34
2022-10-13T05:59:51.986Z,101638.78
2022-10-13T06:02:23.318Z,101636.09
2022-10-13T06:04:55.763Z,101595.28
2022-10-13T06:07:25.924Z,101638.78
2022-10-13T06:09:54.531Z,101637.34
2022-10-13T06:12:23.091Z,101638.66
2022-10-13T06:14:51.681Z,101584.13
2022-10-13T06:17:20.963Z,101637.44
2022-10-13T06:19:49.283Z,101631.34
2022-10-13T06:22:17.692Z,101638.00
2022-10-13T06:24:47.594Z,101638.59
2022-10-13T06:27:15.920Z,101640.56
2022-10-13T06:29:45.529Z,101638.22
2022-10-13T06:32:13.802Z,101634.31
2022-10-13T06:34:42.083Z,101645.38
2022-10-13T06:37:10.728Z,101646.94
2022-10-13T06:39:38.961Z,101636.00
2022-10-13T06:42:08.744Z,101642.75
2022-10-13T06:44:40.021Z,101644.94
2022-10-13T06:47:09.725Z,101642.84
2022-10-13T06:49:37.995Z,101639.19
2022-10-13T06:52:06.537Z,101645.72
2022-10-13T06:54:35.726Z,101637.56
2022-10-13T06:57:08.649Z,101644.81
2022-10-13T06:59:37.003Z,101643.56
2022-10-13T07:02:05.516Z,101649.13
2022-10-13T07:04:34.291Z,101651.72
2022-10-13T07:07:03.108Z,101657.13
2022-10-13T07:09:33.004Z,101663.94
2022-10-13T07:12:01.824Z,101667.94
2022-10-13T07:14:32.929Z,101665.41
2022-10-13T07:17:01.322Z,101661.97
2022-10-13T07:19:29.625Z,101664.72
2022-10-13T07:21:58.182Z,101670.53
2022-10-13T07:24:26.827Z,101665.88
2022-10-13T07:26:55.647Z,101661.56
2022-10-13T07:29:23.976Z,101665.53
2022-10-13T07:31:54.932Z,101665.69
2022-10-13T07:34:23.238Z,101665.13
2022-10-13T07:36:51.501Z,101666.28
2022-10-13T07:39:19.853Z,101668.28
2022-10-13T07:41:51.052Z,101669.28
2022-10-13T07:44:19.943Z,101674.81
2022-10-13T07:46:48.215Z,101661.53
2022-10-13T07:49:20.371Z,101659.81
2022-10-13T07:51:48.715Z,101660.41
2022-10-13T07:54:23.692Z,101661.41
2022-10-13T07:56:56.287Z,101659.19
2022-10-13T07:59:24.641Z,101669.03
2022-10-13T08:01:53.435Z,101666.66
2022-10-13T08:04:23.283Z,101669.63
2022-10-13T08:06:51.584Z,101662.69
2022-10-13T08:09:19.811Z,101656.28
2022-10-13T08:11:48.115Z,101655.72
2022-10-13T08:14:16.394Z,101656.56
2022-10-13T08:16:48.685Z,101652.25
2022-10-13T08:19:22.273Z,101640.78
2022-10-13T08:21:58.234Z,101636.81
2022-10-13T08:24:28.165Z,101636.38
2022-10-13T08:26:56.597Z,101589.03
2022-10-13T08:29:25.018Z,101642.25
2022-10-13T08:31:54.690Z,101639.66
2022-10-13T08:34:23.485Z,101626.63
2022-10-13T08:36:54.917Z,101633.50
2022-10-13T08:39:25.445Z,101640.53
2022-10-13T08:41:54.656Z,101642.03
2022-10-13T08:47:25.614Z,101630.38
2022-10-13T08:49:59.820Z,101631.50
2022-10-13T08:52:43.206Z,101641.09
2022-10-13T08:55:21.439Z,101638.56
2022-10-13T08:57:50.032Z,101624.22
2022-10-13T09:00:19.318Z,101618.75
2022-10-13T09:02:51.646Z,101627.81
2022-10-13T09:05:29.224Z,101625.66
2022-10-13T09:08:13.150Z,101624.69
2022-10-13T09:10:49.103Z,101629.28
2022-10-13T09:13:21.146Z,101634.06
2022-10-13T09:15:51.538Z,101609.19
2022-10-13T09:18:19.955Z,101637.81
2022-10-13T09:20:48.252Z,101635.50
2022-10-13T09:23:23.845Z,101634.69
2022-10-13T09:25:56.105Z,101639.41
2022-10-13T09:28:26.982Z,101653.28
2022-10-13T09:31:04.295Z,101648.91
2022-10-13T09:33:36.716Z,101641.84
2022-10-13T09:36:12.252Z,101646.72
2022-10-13T09:38:43.906Z,101637.44
2022-10-13T09:41:22.212Z,101644.53
2022-10-13T09:44:05.862Z,101652.16
2022-10-13T09:46:37.606Z,101650.63
2022-10-13T09:49:09.602Z,101632.72
2022-10-13T09:51:41.186Z,101648.47
2022-10-13T09:54:43.139Z,101652.84
2022-10-13T09:57:18.785Z,101654.53
2022-10-13T09:59:50.864Z,101647.63
2022-10-13T10:02:28.469Z,101647.97
2022-10-13T10:04:59.846Z,101642.91
2022-10-13T10:07:31.425Z,101647.28
2022-10-13T10:10:05.324Z,101626.53
2022-10-13T10:12:37.471Z,101650.69
2022-10-13T10:15:21.522Z,101645.75
2022-10-13T10:17:57.021Z,101645.22
2022-10-13T10:20:40.282Z,101648.22
2022-10-13T10:23:15.339Z,101619.53
2022-10-13T10:25:49.272Z,101650.41
2022-10-13T10:28:51.818Z,101646.31
2022-10-13T10:31:36.988Z,101632.72
2022-10-13T10:34:27.281Z,101615.97
2022-10-13T10:37:13.725Z,101628.41
2022-10-13T10:39:48.240Z,101624.81
2022-10-13T10:42:49.712Z,101618.84
2022-10-13T10:45:25.017Z,101599.25
2022-10-13T10:47:57.958Z,101568.25
2022-10-13T10:50:29.969Z,101599.34
2022-10-13T10:53:08.458Z,101594.25
2022-10-13T10:55:46.547Z,101588.50
2022-10-13T10:58:28.441Z,101587.47
2022-10-13T11:01:20.125Z,101575.69
2022-10-13T11:03:56.081Z,101579.91
2022-10-13T11:06:36.289Z,101452.78
2022-10-13T11:09:06.211Z,101585.50
2022-10-13T11:11:40.228Z,101575.78
2022-10-13T11:14:31.191Z,101567.31
2022-10-13T11:17:18.924Z,101568.16
2022-10-13T11:19:49.105Z,101566.09
2022-10-13T11:22:20.290Z,101561.47
2022-10-13T11:24:54.847Z,101553.38
2022-10-13T11:27:29.686Z,101524.63
2022-10-13T11:30:02.099Z,101535.91
2022-10-13T11:32:55.700Z,101522.19
2022-10-13T11:35:28.025Z,101515.91
2022-10-13T11:38:16.866Z,101508.22
2022-10-13T11:41:06.890Z,101511.84
2022-10-13T11:43:54.110Z,101521.78
2022-10-13T11:46:34.119Z,101526.59
2022-10-13T11:49:30.994Z,101531.25
2022-10-13T11:52:24.689Z,101521.97
2022-10-13T11:55:02.267Z,101524.56
2022-10-13T11:57:32.926Z,101523.75
2022-10-13T12:00:04.375Z,101517.16
2022-10-13T12:02:51.070Z,101514.94
2022-10-13T12:05:23.840Z,101516.06
2022-10-13T12:07:53.710Z,101514.88
2022-10-13T12:10:26.287Z,101507.19
2022-10-13T12:12:54.911Z,101505.81
2022-10-13T12:15:36.507Z,101491.44
2022-10-13T12:18:22.604Z,101494.81
2022-10-13T12:20:55.391Z,101486.44
2022-10-13T12:23:23.849Z,101488.38
2022-10-13T12:25:57.955Z,101475.59
2022-10-13T12:28:28.573Z,101475.56
2022-10-13T12:30:58.839Z,101472.44
2022-10-13T12:33:33.137Z,101463.66
2022-10-13T12:36:16.026Z,101458.63
2022-10-13T12:38:50.111Z,101451.34
2022-10-13T12:41:23.953Z,101455.53
2022-10-13T12:43:52.933Z,101454.25
2022-10-13T12:46:41.550Z,101448.81
2022-10-13T12:49:15.961Z,101450.28
2022-10-13T12:51:46.974Z,101454.28
2022-10-13T12:54:24.638Z,101467.09
2022-10-13T12:56:56.316Z,101464.38
2022-10-13T12:59:26.007Z,101466.88
2022-10-13T13:01:57.055Z,101455.13
2022-10-13T13:04:39.915Z,101461.41
2022-10-13T13:07:27.996Z,101463.50
2022-10-13T13:10:05.313Z,101455.09
2022-10-13T13:12:33.667Z,101460.56
2022-10-13T13:15:19.901Z,101457.66
2022-10-13T13:18:03.797Z,101445.72
2022-10-13T13:20:37.937Z,101445.31
2022-10-13T13:23:06.212Z,101451.81
2022-10-13T13:25:34.482Z,101451.59
2022-10-13T13:28:05.644Z,101401.47
2022-10-13T13:30:33.935Z,101431.06
2022-10-13T13:33:02.287Z,101443.22
2022-10-13T13:35:30.540Z,101448.63
2022-10-13T13:38:00.258Z,101450.53
2022-10-13T13:40:29.426Z,101448.63
2022-10-13T13:42:57.623Z,101445.50
2022-10-13T13:45:32.321Z,101442.78
2022-10-13T13:48:03.476Z,101439.22
2022-10-13T13:50:35.455Z,101435.22
2022-10-13T13:53:06.493Z,101433.50
2022-10-13T13:55:34.848Z,101435.00
2022-10-13T13:58:04.585Z,101439.38
2022-10-13T14:00:32.839Z,101439.97
2022-10-13T14:03:01.112Z,101438.91
2022-10-13T14:05:29.351Z,101435.31
2022-10-13T14:07:59.058Z,101451.25
2022-10-13T14:10:29.378Z,101448.50
2022-10-13T14:12:57.610Z,101452.84
2022-10-13T14:15:29.668Z,101457.03
2022-10-13T14:17:58.476Z,101450.25
2022-10-13T14:20:26.875Z,101439.56
2022-10-13T14:22:55.239Z,101413.31
2022-10-13T14:25:23.477Z,101432.19
2022-10-13T14:27:53.338Z,101428.59
2022-10-13T14:30:21.704Z,101422.28
2022-10-13T14:32:49.985Z,101414.28
2022-10-13T14:35:18.225Z,101418.66
2022-10-13T14:37:46.531Z,101423.84
2022-10-13T14:40:14.888Z,101407.09
2022-10-13T14:42:43.373Z,101404.13
2022-10-13T14:45:18.157Z,101403.91
2022-10-13T14:47:46.502Z,101403.84
2022-10-13T14:50:14.712Z,101405.63
2022-10-13T14:52:43.100Z,101406.22
2022-10-13T14:55:11.472Z,101404.28
2022-10-13T14:57:40.401Z,101404.72
2022-10-13T15:00:10.977Z,101406.97
2022-10-13T15:02:40.762Z,101410.66
2022-10-13T15:05:09.719Z,101419.59
2022-10-13T15:07:41.112Z,101427.28
2022-10-13T15:10:10.209Z,101419.53
2022-10-13T15:12:38.494Z,101423.50
2022-10-13T15:15:07.317Z,101417.81
2022-10-13T15:17:37.037Z,101415.88
2022-10-13T15:20:08.392Z,101365.41
2022-10-13T15:22:36.767Z,101413.06
2022-10-13T15:25:10.467Z,101410.09
2022-10-13T15:27:41.987Z,101404.81
2022-10-13T15:30:11.511Z,101402.38
2022-10-13T15:32:39.702Z,101398.94
2022-10-13T15:35:09.973Z,101402.88
2022-10-13T15:37:42.406Z,101410.34
2022-10-13T15:40:12.028Z,101409.72
2022-10-13T15:42:40.230Z,101398.41
2022-10-13T15:45:10.697Z,101398.97
2022-10-13T15:47:39.613Z,101397.31
2022-10-13T15:50:10.152Z,101390.19
2022-10-13T15:52:42.266Z,101379.44
2022-10-13T15:55:11.789Z,101370.41
2022-10-13T15:57:40.314Z,101382.19
2022-10-13T16:00:10.460Z,101411.19
2022-10-13T16:02:42.828Z,101432.91
2022-10-13T16:05:14.174Z,101366.16
2022-10-13T16:07:44.017Z,101411.94
2022-10-13T16:10:15.750Z,101432.72
2022-10-13T16:12:49.354Z,101432.72
2022-10-13T16:15:19.790Z,101436.25
2022-10-13T16:17:48.229Z,101430.00
2022-10-13T16:20:17.914Z,101431.41
2022-10-13T16:22:46.225Z,101441.81
2022-10-13T16:25:14.489Z,101441.34
2022-10-13T16:27:44.518Z,101445.72
2022-10-13T16:30:13.882Z,101444.59
2022-10-13T16:32:42.287Z,101449.03
2022-10-13T16:35:10.953Z,101450.44
2022-10-13T16:37:41.590Z,101450.44
2022-10-13T16:40:10.806Z,101447.19
2022-10-13T16:42:39.307Z,101456.78
2022-10-13T16:45:08.768Z,101439.72
2022-10-13T16:47:37.012Z,101466.16
2022-10-13T16:50:09.598Z,101473.84
2022-10-13T16:52:38.141Z,101478.13
2022-10-13T16:55:09.428Z,101459.88
2022-10-13T16:57:37.697Z,101449.78
2022-10-13T17:00:07.150Z,101446.13
2022-10-13T17:02:36.765Z,101410.38
2022-10-13T17:05:05.618Z,101469.75
2022-10-13T17:07:33.855Z,101486.00
2022-10-13T17:10:03.982Z,101489.75
2022-10-13T17:12:33.614Z,101484.03
2022-10-13T17:15:01.835Z,101478.19
2022-10-13T17:17:30.192Z,101498.00
2022-10-13T17:19:58.392Z,101495.63
2022-10-13T17:22:27.047Z,101512.72
2022-10-13T17:24:58.011Z,101519.00
2022-10-13T17:27:26.449Z,101517.66
2022-10-13T17:29:56.203Z,101525.16
2022-10-13T17:32:24.525Z,101534.28
2022-10-13T17:34:52.745Z,101539.72
2022-10-13T17:37:21.499Z,101531.94
2022-10-13T17:39:52.566Z,101523.16
2022-10-13T17:42:21.237Z,101534.81
2022-10-13T17:44:49.966Z,101530.78
2022-10-13T17:47:20.033Z,101524.88
2022-10-13T17:49:48.775Z,101528.28
2022-10-13T17:52:19.663Z,101527.59
2022-10-13T17:54:49.239Z,101523.94
2022-10-13T17:57:17.571Z,101519.56
2022-10-13T17:59:46.938Z,101524.97
2022-10-13T18:02:15.361Z,101527.34
2022-10-13T18:04:45.119Z,101528.84
2022-10-13T18:07:13.340Z,101520.25
2022-10-13T18:09:41.722Z,101512.47
2022-10-13T18:12:10.131Z,101517.72
2022-10-13T18:14:38.450Z,101515.69
2022-10-13T18:17:06.701Z,101514.66
2022-10-13T18:19:39.949Z,101511.47
2022-10-13T18:22:10.013Z,101508.09
2022-10-13T18:24:38.667Z,101514.34
2022-10-13T18:27:06.883Z,101505.56
2022-10-13T18:29:36.778Z,101503.38
2022-10-13T18:32:05.138Z,101504.38
2022-10-13T18:34:33.346Z,101512.84
2022-10-13T18:37:01.552Z,101521.97
2022-10-13T18:39:31.894Z,101523.50
2022-10-13T18:42:00.184Z,101530.75
2022-10-13T18:44:35.567Z,101533.16
2022-10-13T18:47:03.888Z,101541.13
2022-10-13T18:49:33.251Z,101543.69
2022-10-13T18:52:02.381Z,101525.44
2022-10-13T18:54:32.202Z,101524.06
2022-10-13T18:57:00.395Z,101495.00
2022-10-13T18:59:28.662Z,101486.56
2022-10-13T19:01:57.233Z,101487.25
2022-10-13T19:04:26.710Z,101491.31
2022-10-13T19:06:56.175Z,101506.84
2022-10-13T19:09:25.557Z,101512.78
2022-10-13T19:11:56.934Z,101516.50
2022-10-13T19:14:25.882Z,101531.03
2022-10-13T19:16:59.413Z,101530.19
2022-10-13T19:19:31.130Z,101529.34
2022-10-13T19:22:02.273Z,101533.91
2022-10-13T19:24:30.697Z,101520.88
2022-10-13T19:27:00.265Z,101529.19
2022-10-13T19:29:30.521Z,101525.78
2022-10-13T19:31:58.764Z,101514.97
2022-10-13T19:34:27.117Z,101518.03
2022-10-13T19:37:01.746Z,101523.25
2022-10-13T19:39:30.185Z,101521.56
2022-10-13T19:42:00.076Z,101517.00
2022-10-13T19:44:28.457Z,101521.91
2022-10-13T19:46:57.030Z,101526.31
2022-10-13T19:49:26.593Z,101519.03
2022-10-13T19:51:55.779Z,101516.34
2022-10-13T19:54:25.743Z,101501.81
2022-10-13T19:56:55.545Z,101501.97
2022-10-13T19:59:25.398Z,101513.13
2022-10-13T20:01:54.028Z,101520.22
2022-10-13T20:04:22.435Z,101511.94
2022-10-13T20:06:52.883Z,101517.69
2022-10-13T20:09:21.468Z,101515.84
2022-10-13T20:11:51.316Z,101517.69
2022-10-13T20:14:19.783Z,101526.66
2022-10-13T20:16:49.950Z,101531.41
2022-10-13T20:19:19.872Z,101525.31
2022-10-13T20:21:51.846Z,101516.88
2022-10-13T20:24:21.594Z,101520.09
2022-10-13T20:26:50.302Z,101520.09
2022-10-13T20:29:23.661Z,101525.50
2022-10-13T20:31:56.065Z,101531.06
2022-10-13T20:34:24.348Z,101523.81
2022-10-13T20:36:52.617Z,101487.69
2022-10-13T20:39:21.040Z,101521.78
2022-10-13T20:41:49.406Z,101520.94
2022-10-13T20:44:18.720Z,101528.88
2022-10-13T20:46:47.208Z,101538.00
2022-10-13T20:49:16.903Z,101535.78
2022-10-13T20:51:45.686Z,101542.72
2022-10-13T20:54:15.860Z,101540.00
2022-10-13T20:56:44.654Z,101536.63
2022-10-13T20:59:14.774Z,101528.34
2022-10-13T21:01:43.195Z,101539.50
2022-10-13T21:04:11.498Z,101534.09
2022-10-13T21:06:41.906Z,101535.28
2022-10-13T21:09:11.092Z,101478.22
2022-10-13T21:11:41.767Z,101543.91
2022-10-13T21:14:10.499Z,101528.03
2022-10-13T21:16:39.314Z,101535.94
2022-10-13T21:19:10.069Z,101529.69
2022-10-13T21:21:38.534Z,101522.81
2022-10-13T21:24:09.570Z,101519.44
2022-10-13T21:26:38.703Z,101511.66
2022-10-13T21:29:07.191Z,101509.13
2022-10-13T21:31:35.891Z,101521.44
2022-10-13T21:34:04.352Z,101525.69
2022-10-13T21:36:34.167Z,101527.00
2022-10-13T21:39:04.596Z,101532.41
2022-10-13T21:41:35.516Z,101528.84
2022-10-13T21:44:04.333Z,101531.91
2022-10-13T21:46:35.120Z,101524.50
2022-10-13T21:49:05.587Z,101525.69
2022-10-13T21:51:36.026Z,101523.31
2022-10-13T21:54:08.704Z,101491.72
2022-10-13T21:56:40.056Z,101502.88
2022-10-13T21:59:08.914Z,101520.09
2022-10-13T22:01:37.190Z,101520.94
2022-10-13T22:04:12.965Z,101515.69
2022-10-13T22:06:41.378Z,101520.44
2022-10-13T22:09:09.642Z,101536.63
2022-10-13T22:11:39.810Z,101529.53
2022-10-13T22:14:14.428Z,101514.19
2022-10-13T22:16:44.656Z,101556.91
2022-10-13T22:19:13.485Z,101548.97
2022-10-13T22:21:44.210Z,101542.03
2022-10-13T22:24:14.896Z,101546.44
2022-10-13T22:26:45.783Z,101531.41
2022-10-13T22:29:16.819Z,101538.50
2022-10-13T22:31:45.463Z,101531.56
2022-10-13T22:34:15.322Z,101530.88
2022-10-13T22:36:45.311Z,101529.19
2022-10-13T22:39:14.304Z,101531.56
2022-10-13T22:41:44.211Z,101527.34
2022-10-13T22:44:12.480Z,101518.56
2022-10-13T22:46:42.528Z,101522.09
2022-10-13T22:49:14.827Z,101522.94
2022-10-13T22:51:43.150Z,101521.41
2022-10-13T22:54:11.787Z,101520.75
2022-10-13T22:56:41.933Z,101511.31
2022-10-13T22:59:13.169Z,101514.00
2022-10-13T23:01:41.475Z,101507.25
2022-10-13T23:04:09.901Z,101512.31
2022-10-13T23:06:38.160Z,101501.34
2022-10-13T23:09:09.363Z,101494.75
2022-10-13T23:11:38.193Z,101494.06
2022-10-13T23:14:07.919Z,101493.06
2022-10-13T23:16:37.763Z,101491.38
2022-10-13T23:19:06.079Z,101485.31
2022-10-13T23:21:34.406Z,101491.72
2022-10-13T23:24:04.838Z,101482.63
2022-10-13T23:26:34.777Z,101477.69
2022-10-13T23:29:03.191Z,101468.59
2022-10-13T23:31:31.812Z,101471.13
2022-10-13T23:34:01.501Z,101471.13
2022-10-13T23:36:33.692Z,101468.41
2022-10-13T23:39:04.153Z,101372.56
2022-10-13T23:41:32.955Z,101441.22
2022-10-13T23:44:01.802Z,101467.75
2022-10-13T23:46:30.378Z,101472.00
2022-10-13T23:48:58.592Z,101468.44
2022-10-13T23:51:28.673Z,101451.06
2022-10-13T23:53:57.150Z,101463.38
2022-10-13T23:56:25.876Z,101455.09
2022-10-13T23:58:54.311Z,101458.31
